Latest Weather Observations for Grove

IDT60901

Issued at 2:41 am EST Saturday 27 May 2017 (issued every 10 minutes, with the page automatically refreshed every 10 minutes)

About weather observations | Map of Hobart area stations | Latest observations for Hobart area | Other Formats
Station Details ID: 094220 Name: GROVE (RESEARCH STATION) Lat: -42.99 Lon: 147.07 Height: 65.0 m
Data from the previous 72 hours. | See also: Recent months at Grove
Date/Time
EST
Temp
°C
App
Temp
°C
Dew
Point
°C
Rel
Hum
%
Delta-T
°C
Wind Press
QNH
hPa
Press
MSL
hPa
Rain since
9am
mm
Dir  Spd
km/h
Gust
km/h
Spd
kts
Gust
kts
27/02:30am 2.5 -0.4 1.7 94 0.3 NNE 6 11 3 6 - - 0.0
27/02:00am 3.4 -0.3 2.4 93 0.4 N 11 17 6 9 - - 0.0
27/01:30am 3.8 1.1 2.6 92 0.5 S 6 9 3 5 - - 0.0
27/01:00am 1.1 -1.5 1.1 100 0.0 ENE 4 9 2 5 - - 0.0
27/12:30am 1.4 -2.1 1.1 98 0.1 NE 9 11 5 6 - - 0.0
27/12:00am 1.4 -1.8 0.9 96 0.2 NNE 7 11 4 6 - - 0.0
 
Date/Time
EST
Temp
°C
App
Temp
°C
Dew
Point
°C
Rel
Hum
%
Delta-T
°C
Wind Press
QNH
hPa
Press
MSL
hPa
Rain since
9am
mm
Dir  Spd
km/h
Gust
km/h
Spd
kts
Gust
kts
26/11:30pm 0.9 -2.3 0.9 100 0.0 NE 7 9 4 5 - - 0.0
26/11:00pm 1.6 -1.3 1.3 98 0.1 E 6 7 3 4 - - 0.0
26/10:30pm 2.0 -1.0 1.7 98 0.1 NNE 7 13 4 7 - - 0.0
26/10:00pm 2.3 -0.2 1.8 96 0.2 N 4 9 2 5 - - 0.0
26/09:30pm 3.3 0.5 3.1 99 0.1 NE 7 13 4 7 - - 0.0
26/09:00pm 3.1 0.2 2.6 96 0.2 NNE 7 9 4 5 - - 0.0
26/08:30pm 3.5 0.6 2.8 95 0.3 N 7 9 4 5 - - 0.0
26/08:00pm 4.1 0.9 3.1 93 0.4 NNE 9 11 5 6 - - 0.0
26/07:30pm 4.8 2.4 4.1 95 0.3 NE 6 7 3 4 - - 0.0
26/07:00pm 5.0 2.4 4.1 94 0.4 ENE 7 11 4 6 - - 0.0
26/06:30pm 5.6 3.1 4.9 95 0.3 NNW 7 9 4 5 - - 0.0
26/06:00pm 6.6 4.1 5.0 89 0.7 NE 7 7 4 4 - - 0.0
26/05:30pm 7.5 6.4 5.0 84 1.1 CALM 0 9 0 5 - - 0.0
26/05:00pm 8.9 6.7 5.1 77 1.7 NE 6 7 3 4 - - 0.0
26/04:30pm 11.1 8.6 5.0 66 2.8 WSW 7 11 4 6 - - 0.0
26/04:00pm 11.8 8.9 4.5 61 3.3 W 9 13 5 7 - - 0.0
26/03:30pm 12.6 9.6 4.2 56 3.8 WSW 9 15 5 8 - - 0.0
26/03:00pm 14.1 11.2 4.4 52 4.5 W 9 19 5 10 - - 0.0
26/02:30pm 13.7 9.8 3.2 49 4.7 W 13 19 7 10 - - 0.0
26/02:00pm 14.3 10.7 2.9 46 5.1 W 11 22 6 12 - - 0.0
26/01:30pm 13.7 10.8 4.4 53 4.3 WSW 9 13 5 7 - - 0.0
26/01:00pm 13.0 10.0 4.0 54 4.1 W 9 13 5 7 - - 0.0
26/12:30pm 13.3 10.3 4.1 53 4.2 WNW 9 15 5 8 - - 0.0
26/12:00pm 12.6 9.8 2.9 51 4.3 S 7 11 4 6 - - 0.0
26/11:30am 13.2 10.7 3.7 52 4.3 S 6 9 3 5 - - 0.0
26/11:00am 12.7 10.0 3.6 54 4.1 SSW 7 11 4 6 - - 0.0
26/10:30am 11.9 9.0 4.4 60 3.4 WSW 9 13 5 7 - - 0.0
26/10:00am 11.7 10.9 6.4 70 2.5 CALM 0 0 0 0 - - 0.0
26/09:30am 8.6 7.2 5.7 82 1.3 SSW 2 7 1 4 - - 0.0
26/09:00am 6.9 4.8 5.8 93 0.5 NE 6 7 3 4 - - -
26/08:30am 5.6 4.5 4.9 95 0.3 CALM 0 6 0 3 - - 0.8
26/08:00am 5.2 3.2 4.5 95 0.3 WSW 4 9 2 5 - - 0.8
26/07:30am 4.9 3.6 4.2 95 0.3 CALM 0 0 0 0 - - 0.8
26/07:00am 4.7 2.3 4.2 97 0.2 NE 6 11 3 6 - - 0.8
26/06:30am 5.5 3.0 4.8 95 0.3 NE 7 11 4 6 - - 0.6
26/06:00am 5.1 2.5 4.2 94 0.4 NE 7 9 4 5 - - -
26/05:30am 6.4 4.5 4.8 89 0.7 ENE 4 13 2 7 - - 0.6
26/05:00am 6.6 4.8 5.2 91 0.6 ENE 4 7 2 4 - - 0.6
26/04:30am 6.6 5.5 5.2 91 0.6 CALM 0 0 0 0 - - 0.6
26/04:00am 6.0 3.1 4.9 93 0.5 NNE 9 11 5 6 - - 0.6
26/03:30am 7.7 6.2 5.2 84 1.1 NW 2 7 1 4 - - 0.6
26/03:00am 8.6 6.2 4.3 74 1.9 SSW 6 11 3 6 - - -
26/02:30am 9.6 6.2 3.9 67 2.5 WNW 11 17 6 9 - - 0.4
26/02:00am 8.6 5.7 4.8 77 1.7 WNW 9 13 5 7 - - 0.4
26/01:30am 7.3 4.7 6.0 91 0.6 NE 9 13 5 7 - - 0.4
26/01:00am 8.7 6.1 6.1 84 1.2 NW 9 13 5 7 - - 0.4
26/12:30am 10.1 7.7 5.3 72 2.2 WSW 7 13 4 7 - - 0.4
26/12:00am 10.0 6.6 5.9 75 1.9 W 13 24 7 13 - - -
 
Date/Time
EST
Temp
°C
App
Temp
°C
Dew
Point
°C
Rel
Hum
%
Delta-T
°C
Wind Press
QNH
hPa
Press
MSL
hPa
Rain since
9am
mm
Dir  Spd
km/h
Gust
km/h
Spd
kts
Gust
kts
25/11:30pm 8.4 6.6 7.8 96 0.3 NNE 7 11 4 6 - - 0.4
25/11:00pm 8.7 6.9 7.9 95 0.4 NNE 7 9 4 5 - - 0.4
25/10:30pm 9.3 7.6 8.3 93 0.5 NW 7 11 4 6 - - 0.4
25/10:00pm 9.3 7.3 8.7 96 0.3 NNW 9 11 5 6 - - -
25/09:30pm 9.5 7.6 8.9 96 0.3 ENE 9 11 5 6 - - -
25/09:00pm 9.5 8.1 8.9 96 0.3 ENE 6 11 3 6 - - -
25/08:30pm 9.7 8.1 8.9 95 0.4 E 7 11 4 6 - - 0.2
25/08:00pm 10.5 10.4 9.5 93 0.5 CALM 0 0 0 0 - - 0.2
25/07:30pm 10.8 9.7 9.8 93 0.5 N 6 9 3 5 - - 0.2
25/07:00pm 11.9 10.5 9.5 85 1.2 SSW 7 11 4 6 - - 0.2
25/06:30pm 12.3 10.5 9.5 83 1.4 SW 9 11 5 6 - - 0.2
25/06:00pm 13.4 9.8 8.4 72 2.5 WSW 17 22 9 12 - - 0.0
25/05:30pm 14.6 11.3 6.3 57 4.0 NW 13 20 7 11 - - 0.0
25/05:00pm 14.7 12.7 6.2 56 4.1 NW 6 9 3 5 - - 0.0
25/04:30pm 14.8 11.1 6.3 56 4.1 W 15 26 8 14 - - 0.0
25/04:00pm 15.0 12.8 7.8 62 3.6 WSW 9 20 5 11 - - 0.0
25/03:30pm 15.9 11.6 8.0 59 4.0 W 20 26 11 14 - - 0.0
25/03:00pm 16.0 15.4 8.8 62 3.7 NW 2 7 1 4 - - 0.0
25/02:30pm 16.3 14.7 8.0 58 4.2 W 6 17 3 9 - - 0.0
25/02:00pm 15.7 11.8 7.2 57 4.2 N 17 28 9 15 - - 0.0
25/01:30pm 15.0 11.5 7.1 59 3.9 N 15 28 8 15 - - 0.0
25/01:00pm 14.3 9.7 6.7 60 3.7 N 20 32 11 17 - - 0.0
25/12:30pm 13.9 10.3 6.9 62 3.4 NNW 15 30 8 16 - - 0.0
25/12:00pm 13.6 9.7 7.0 64 3.2 N 17 32 9 17 - - 0.0
25/11:30am 13.4 9.2 7.3 66 3.0 N 19 32 10 17 - - 0.0
25/11:00am 13.1 11.3 7.1 67 2.9 NW 6 11 3 6 - - 0.0
25/10:30am 12.9 10.1 6.9 67 2.9 ESE 11 17 6 9 - - 0.0
25/10:00am 9.8 8.1 7.7 87 1.0 WSW 6 9 3 5 - - 0.0
25/09:30am 8.6 6.6 6.9 89 0.8 SSE 7 13 4 7 - - 0.0
25/09:00am 8.5 6.7 7.0 90 0.7 SSW 6 9 3 5 - - 0.0
25/08:30am 10.2 7.8 7.0 80 1.5 NE 9 13 5 7 - - 0.0
25/08:00am 8.2 5.8 6.9 91 0.6 NNE 9 13 5 7 - - 0.0
25/07:30am 5.7 3.5 5.2 97 0.2 NNE 6 9 3 5 - - 0.0
25/07:00am 5.5 4.1 5.3 99 0.1 ENE 2 11 1 6 - - 0.0
25/06:30am 5.6 3.2 5.4 99 0.1 NNW 7 11 4 6 - - 0.0
25/06:00am 5.6 4.1 5.1 97 0.2 N 2 7 1 4 - - 0.0
25/05:30am 5.9 3.6 5.0 94 0.4 N 6 9 3 5 - - 0.0
25/05:00am 5.5 4.0 4.8 95 0.3 N 2 9 1 5 - - 0.0
25/04:30am 5.7 3.9 5.2 97 0.2 ENE 4 7 2 4 - - 0.0
25/04:00am 5.7 3.4 5.0 95 0.3 NW 6 7 3 4 - - 0.0
25/03:30am 6.1 4.3 5.4 95 0.3 NE 4 9 2 5 - - 0.0
25/03:00am 7.2 4.9 5.6 89 0.7 ENE 7 9 4 5 - - 0.0
25/02:30am 7.2 5.1 5.6 89 0.7 SW 6 11 3 6 - - 0.0
25/02:00am 8.2 5.9 5.8 85 1.1 N 7 15 4 8 - - 0.0
25/01:30am 8.7 6.7 6.1 84 1.2 NE 6 11 3 6 - - 0.0
25/01:00am 8.5 6.9 6.3 86 1.0 WNW 4 11 2 6 - - 0.0
25/12:30am 8.8 6.8 6.2 84 1.2 S 6 9 3 5 - - 0.0
25/12:00am 8.9 6.8 5.8 81 1.4 W 6 9 3 5 - - 0.0
 
Date/Time
EST
Temp
°C
App
Temp
°C
Dew
Point
°C
Rel
Hum
%
Delta-T
°C
Wind Press
QNH
hPa
Press
MSL
hPa
Rain since
9am
mm
Dir  Spd
km/h
Gust
km/h
Spd
kts
Gust
kts
24/11:30pm 8.6 7.7 6.2 85 1.1 CALM 0 0 0 0 - - 0.0
24/11:00pm 8.4 5.7 5.8 84 1.2 NNE 9 13 5 7 - - 0.0
24/10:30pm 7.5 5.3 6.0 90 0.7 NNE 7 9 4 5 - - 0.0
24/10:00pm 7.9 6.2 5.9 87 0.9 N 4 7 2 4 - - 0.0
24/09:30pm 8.1 6.1 6.4 89 0.8 E 6 9 3 5 - - 0.0
24/09:00pm 8.3 6.2 5.9 85 1.1 NNE 6 7 3 4 - - 0.0
24/08:30pm 8.4 6.1 5.5 82 1.3 NNW 7 9 4 5 - - 0.0
24/08:00pm 8.3 6.2 5.9 85 1.1 N 6 9 3 5 - - 0.0
24/07:30pm 9.2 6.9 5.5 78 1.7 SSE 7 13 4 7 - - 0.0
24/07:00pm 8.6 5.9 5.7 82 1.3 NE 9 11 5 6 - - 0.0
24/06:30pm 9.2 7.0 5.5 78 1.7 NNW 6 11 3 6 - - 0.0
24/06:00pm 8.7 6.0 5.4 80 1.5 ENE 9 11 5 6 - - 0.0
24/05:30pm 10.0 7.1 4.9 70 2.3 S 9 15 5 8 - - 0.0
24/05:00pm 11.3 7.4 3.4 58 3.5 WSW 13 24 7 13 - - 0.0
24/04:30pm 11.2 7.3 3.2 58 3.5 W 13 20 7 11 - - 0.0
24/04:00pm 11.6 7.0 3.8 59 3.5 W 17 33 9 18 - - 0.0
24/03:30pm 12.4 8.3 4.3 57 3.7 WSW 15 26 8 14 - - 0.0
24/03:00pm 12.7 8.9 4.1 56 3.9 WSW 13 20 7 11 - - 0.0
24/02:30pm 12.5 9.6 4.7 59 3.6 WSW 9 15 5 8 - - 0.0
24/02:00pm 12.1 8.6 5.4 63 3.1 WSW 13 20 7 11 - - 0.0
24/01:30pm 12.5 9.7 5.2 61 3.4 WSW 9 19 5 10 - - 0.0
24/01:00pm 12.1 8.8 4.7 60 3.4 SSW 11 15 6 8 - - 0.0
24/12:30pm 12.5 7.3 3.6 54 4.0 WSW 20 33 11 18 - - 0.0
24/12:00pm 12.4 9.0 5.8 64 3.1 WSW 13 20 7 11 - - 0.0
24/11:30am 12.6 8.6 5.0 60 3.5 WSW 15 24 8 13 - - 0.0
24/11:00am 12.7 8.4 5.4 61 3.4 SW 17 32 9 17 - - 0.0
24/10:30am 13.3 11.7 8.1 71 2.6 ENE 6 9 3 5 - - 0.0
24/10:00am 10.9 9.5 8.7 86 1.1 SSE 6 9 3 5 - - 0.0
24/09:30am 8.6 7.1 8.4 99 0.1 E 6 11 3 6 - - 0.0
24/09:00am 7.6 6.7 7.6 100 0.0 N 2 11 1 6 - - -
24/08:30am 6.9 5.8 6.7 99 0.1 NW 2 7 1 4 - - 2.0
24/08:00am 6.1 4.8 6.1 100 0.0 W 2 6 1 3 - - 2.0
24/07:30am 6.0 4.3 6.0 100 0.0 SE 4 7 2 4 - - 2.0
24/07:00am 5.5 4.4 5.3 99 0.1 CALM 0 0 0 0 - - 2.0
24/06:30am 5.1 4.0 4.9 99 0.1 CALM 0 0 0 0 - - 1.8
24/06:00am 4.8 3.6 4.8 100 0.0 CALM 0 0 0 0 - - -
24/05:30am 4.9 3.0 4.9 100 0.0 ESE 4 9 2 5 - - 1.8
24/05:00am 4.8 3.3 4.8 100 0.0 NNE 2 9 1 5 - - 1.8
24/04:30am 5.0 2.7 5.0 100 0.0 WNW 6 7 3 4 - - 1.8
24/04:00am 5.0 2.7 5.0 100 0.0 SSW 6 9 3 5 - - 1.8
24/03:30am 5.2 2.4 5.0 99 0.1 NE 9 11 5 6 - - 1.8
24/03:00am 5.4 4.4 5.4 100 0.0 CALM 0 0 0 0 - - -

Latest Capital City Observations: Canberra | Sydney | Melbourne | Brisbane | Adelaide | Perth | Hobart | Darwin

Other Formats:

Comma delimited format used in spreadsheet applications
http://www.bom.gov.au/fwo/IDT60901/IDT60901.95977.axf

JavaScript Object Notation format (JSON) in row-major order
http://www.bom.gov.au/fwo/IDT60901/IDT60901.95977.json